Time;durP1;ratioP1;P1;durP2;ratioP2;P2;SDS_P1;SDS_P2;PMS_P1;PMS_P2;Temp;Humidity;BMP_temperature;BMP_pressure;BME280_temperature;BME280_humidity;BME280_pressure;Samples;Min_cycle;Max_cycle;Signal;HPM_P1;HPM_P2
2023/04/12 00:00:14;;;;;;;10.95;2.58;;;;;;;;;;5054123;28;20024;-70
2023/04/12 00:02:40;;;;;;;6.55;2.53;;;;;;;;;;5061514;28;20059;-69
2023/04/12 00:05:08;;;;;;;8.02;2.50;;;;;;;;;;5028383;28;20069;-71
2023/04/12 00:07:33;;;;;;;9.13;2.30;;;;;;;;;;5056037;28;20024;-71
2023/04/12 00:09:59;;;;;;;6.20;2.25;;;;;;;;;;5070640;28;20108;-70
2023/04/12 00:12:24;;;;;;;5.53;2.58;;;;;;;;;;5070762;28;20016;-70
2023/04/12 00:14:50;;;;;;;5.90;2.50;;;;;;;;;;5057533;28;20096;-71
2023/04/12 00:17:15;;;;;;;6.22;2.42;;;;;;;;;;5050320;28;20393;-70
2023/04/12 00:19:43;;;;;;;10.68;2.30;;;;;;;;;;5050093;28;20383;-70
2023/04/12 00:22:09;;;;;;;8.20;2.83;;;;;;;;;;5049874;28;20482;-68
2023/04/12 00:24:34;;;;;;;7.88;2.88;;;;;;;;;;5050220;28;20075;-70
2023/04/12 00:27:04;;;;;;;8.60;3.30;;;;;;;;;;5069628;28;20039;-70
2023/04/12 00:29:30;;;;;;;9.05;3.08;;;;;;;;;;5057294;28;20025;-71
2023/04/12 00:31:56;;;;;;;6.20;2.72;;;;;;;;;;5056527;28;20027;-71
2023/04/12 00:34:21;;;;;;;7.95;2.85;;;;;;;;;;5057067;28;20017;-71
2023/04/12 00:36:46;;;;;;;6.95;3.08;;;;;;;;;;5049665;28;20382;-71
2023/04/12 00:39:11;;;;;;;7.63;2.97;;;;;;;;;;5050278;28;20023;-70
2023/04/12 00:41:37;;;;;;;8.32;3.35;;;;;;;;;;5065409;28;20334;-72
2023/04/12 00:44:03;;;;;;;6.35;3.00;;;;;;;;;;5057589;28;20656;-70
2023/04/12 00:46:28;;;;;;;7.40;3.35;;;;;;;;;;5055609;28;20021;-68
2023/04/12 00:48:55;;;;;;;6.07;2.78;;;;;;;;;;5057517;28;20032;-71
2023/04/12 00:51:21;;;;;;;5.95;2.63;;;;;;;;;;5050084;28;20112;-71
2023/04/12 00:53:46;;;;;;;7.97;2.88;;;;;;;;;;5049728;28;20100;-71
2023/04/12 00:56:12;;;;;;;8.25;2.80;;;;;;;;;;5049866;28;20017;-71
2023/04/12 00:58:37;;;;;;;8.23;3.22;;;;;;;;;;5031757;28;20410;-71
2023/04/12 01:01:03;;;;;;;6.78;3.10;;;;;;;;;;5049354;28;20036;-71
2023/04/12 01:03:29;;;;;;;7.30;3.00;;;;;;;;;;5048395;28;20025;-69
2023/04/12 01:05:57;;;;;;;13.15;2.90;;;;;;;;;;5041359;28;20023;-71
2023/04/12 01:08:27;;;;;;;8.55;3.92;;;;;;;;;;5049000;28;20437;-71
2023/04/12 01:10:55;;;;;;;7.25;3.05;;;;;;;;;;5044813;28;20021;-71
2023/04/12 01:13:23;;;;;;;6.00;2.70;;;;;;;;;;5049588;28;20409;-71
2023/04/12 01:16:05;;;;;;;8.20;2.97;;;;;;;;;;5036616;28;20431;-71
2023/04/12 01:18:33;;;;;;;9.55;3.03;;;;;;;;;;5049611;28;20505;-70
2023/04/12 01:21:08;;;;;;;11.32;2.90;;;;;;;;;;5041244;28;20025;-70
2023/04/12 01:23:52;;;;;;;5.93;2.60;;;;;;;;;;5046260;28;20059;-70
2023/04/12 01:26:36;;;;;;;9.60;2.63;;;;;;;;;;5049266;28;20397;-72
2023/04/12 01:29:05;;;;;;;9.27;2.60;;;;;;;;;;5037896;28;20486;-69
2023/04/12 01:31:31;;;;;;;6.13;2.92;;;;;;;;;;5049352;28;20079;-71
2023/04/12 01:33:58;;;;;;;7.72;2.92;;;;;;;;;;5030646;28;20025;-71
2023/04/12 01:36:26;;;;;;;7.85;2.50;;;;;;;;;;5049282;28;20482;-71
2023/04/12 01:38:52;;;;;;;10.30;2.42;;;;;;;;;;5049106;28;20025;-70
2023/04/12 01:41:17;;;;;;;6.72;2.72;;;;;;;;;;5044213;28;20029;-71
2023/04/12 01:43:43;;;;;;;4.57;2.15;;;;;;;;;;5047483;28;20024;-69
2023/04/12 01:46:10;;;;;;;5.95;2.17;;;;;;;;;;5049072;28;20117;-70
2023/04/12 01:48:36;;;;;;;6.47;2.47;;;;;;;;;;5049606;28;20032;-71
2023/04/12 01:51:01;;;;;;;5.78;2.42;;;;;;;;;;5049489;28;20025;-72
2023/04/12 01:53:26;;;;;;;8.10;2.38;;;;;;;;;;5030992;28;20048;-72
2023/04/12 01:55:55;;;;;;;10.27;2.80;;;;;;;;;;5048949;28;20104;-71
2023/04/12 01:58:20;;;;;;;;;;;;;;;;;;5049709;28;20009;-70
2023/04/12 02:00:46;;;;;;;5.50;2.33;;;;;;;;;;5049712;28;20284;-71
2023/04/12 02:03:11;;;;;;;13.27;3.33;;;;;;;;;;5049547;28;20246;-72
2023/04/12 02:05:37;;;;;;;6.50;2.65;;;;;;;;;;5046137;28;20175;-72
2023/04/12 02:08:02;;;;;;;5.05;2.28;;;;;;;;;;5048647;28;20474;-70
2023/04/12 02:10:32;;;;;;;6.25;2.10;;;;;;;;;;5048895;28;20043;-69
2023/04/12 02:12:57;;;;;;;;;;;;;;;;;;5049344;28;20385;-72
2023/04/12 02:15:22;;;;;;;4.15;2.00;;;;;;;;;;5048622;28;20289;-70
2023/04/12 02:17:52;;;;;;;12.20;3.20;;;;;;;;;;5048888;28;20025;-72
2023/04/12 02:20:17;;;;;;;10.55;2.72;;;;;;;;;;5041316;28;20490;-72
2023/04/12 02:22:43;;;;;;;4.85;2.10;;;;;;;;;;5040266;28;20053;-70
2023/04/12 02:25:08;;;;;;;7.80;2.47;;;;;;;;;;5048757;28;20033;-70
2023/04/12 02:27:33;;;;;;;4.25;1.85;;;;;;;;;;5048823;28;20020;-71
2023/04/12 02:29:58;;;;;;;8.18;2.17;;;;;;;;;;5048494;28;20020;-72
2023/04/12 02:32:24;;;;;;;5.47;2.13;;;;;;;;;;5048842;28;20017;-71
2023/04/12 02:34:50;;;;;;;6.82;2.15;;;;;;;;;;5048290;28;20100;-70
2023/04/12 02:37:16;;;;;;;6.03;2.42;;;;;;;;;;5048657;28;20035;-71
2023/04/12 02:39:43;;;;;;;5.70;1.60;;;;;;;;;;5048135;28;20570;-70
2023/04/12 02:42:08;;;;;;;4.85;2.05;;;;;;;;;;5048317;28;20021;-69
2023/04/12 02:44:34;;;;;;;5.65;2.20;;;;;;;;;;5048274;28;20025;-70
2023/04/12 02:46:59;;;;;;;4.85;1.63;;;;;;;;;;5048715;28;20021;-72
2023/04/12 02:49:24;;;;;;;10.23;2.00;;;;;;;;;;5064100;22;20049;-64
2023/04/12 02:51:50;;;;;;;10.68;2.58;;;;;;;;;;5058470;28;20020;-63
2023/04/12 02:54:15;;;;;;;6.32;2.00;;;;;;;;;;5055725;28;20027;-63
2023/04/12 02:56:42;;;;;;;4.05;2.00;;;;;;;;;;5062498;28;20028;-64
2023/04/12 02:59:08;;;;;;;5.57;2.00;;;;;;;;;;5051952;28;20098;-64
2023/04/12 03:01:33;;;;;;;6.20;2.28;;;;;;;;;;5061512;28;20092;-63
2023/04/12 03:04:00;;;;;;;3.47;1.95;;;;;;;;;;5050997;28;20013;-62
2023/04/12 03:06:26;;;;;;;5.20;2.40;;;;;;;;;;5059001;28;20025;-64
2023/04/12 03:08:51;;;;;;;5.82;1.98;;;;;;;;;;5054723;28;20078;-64
2023/04/12 03:11:16;;;;;;;9.13;2.88;;;;;;;;;;5062627;28;20032;-59
2023/04/12 03:13:41;;;;;;;6.28;2.20;;;;;;;;;;5064618;28;20454;-64
2023/04/12 03:16:23;;;;;;;3.95;1.83;;;;;;;;;;5061707;28;20016;-63
2023/04/12 03:18:50;;;;;;;4.68;2.00;;;;;;;;;;5053041;28;20048;-64
2023/04/12 03:21:15;;;;;;;3.88;1.90;;;;;;;;;;5051437;28;20115;-65
2023/04/12 03:23:41;;;;;;;5.80;1.80;;;;;;;;;;5051211;28;20025;-63
2023/04/12 03:26:06;;;;;;;5.90;1.98;;;;;;;;;;5051962;28;20025;-63
2023/04/12 03:28:31;;;;;;;5.97;2.47;;;;;;;;;;5064930;28;20442;-64
2023/04/12 03:30:56;;;;;;;7.28;2.40;;;;;;;;;;5051682;28;20047;-64
2023/04/12 03:33:23;;;;;;;7.68;2.17;;;;;;;;;;5055949;28;20501;-64
2023/04/12 03:35:48;;;;;;;14.73;3.17;;;;;;;;;;5053181;28;20489;-63
2023/04/12 03:38:13;;;;;;;5.68;1.95;;;;;;;;;;5064527;28;20486;-64
2023/04/12 03:40:38;;;;;;;6.50;2.13;;;;;;;;;;5060821;28;20021;-63
2023/04/12 03:43:04;;;;;;;7.45;2.50;;;;;;;;;;5055633;28;20109;-63
2023/04/12 03:45:29;;;;;;;4.57;2.00;;;;;;;;;;5059886;28;20035;-61
2023/04/12 03:47:54;;;;;;;5.40;2.08;;;;;;;;;;5064910;28;20025;-63
2023/04/12 03:50:21;;;;;;;3.75;2.05;;;;;;;;;;5066302;28;20115;-63
2023/04/12 03:52:46;;;;;;;11.93;2.35;;;;;;;;;;5071217;28;20447;-64
2023/04/12 03:55:12;;;;;;;9.07;2.35;;;;;;;;;;5070529;28;20446;-65
2023/04/12 03:57:37;;;;;;;4.72;2.08;;;;;;;;;;5071389;28;20028;-64
2023/04/12 04:00:03;;;;;;;8.27;1.98;;;;;;;;;;5053152;28;20016;-63
2023/04/12 04:02:28;;;;;;;5.68;1.88;;;;;;;;;;5071729;28;20021;-65
2023/04/12 04:04:54;;;;;;;7.25;3.03;;;;;;;;;;5065473;28;20085;-65
2023/04/12 04:07:20;;;;;;;6.55;2.20;;;;;;;;;;5070327;28;20091;-63
2023/04/12 04:09:45;;;;;;;8.15;2.05;;;;;;;;;;5071266;28;20032;-65
2023/04/12 04:12:10;;;;;;;6.22;2.30;;;;;;;;;;5071005;28;20008;-63
2023/04/12 04:14:36;;;;;;;4.40;2.20;;;;;;;;;;5070412;28;20020;-60
2023/04/12 04:17:01;;;;;;;6.05;2.60;;;;;;;;;;5070695;28;20016;-64
2023/04/12 04:19:26;;;;;;;7.00;2.58;;;;;;;;;;5070160;28;20347;-62
2023/04/12 04:21:52;;;;;;;6.00;2.53;;;;;;;;;;5070131;28;20629;-64
2023/04/12 04:24:18;;;;;;;4.55;2.25;;;;;;;;;;5070284;28;20587;-64
2023/04/12 04:26:44;;;;;;;5.72;2.65;;;;;;;;;;5070620;28;20115;-66
2023/04/12 04:29:10;;;;;;;6.28;2.80;;;;;;;;;;5069634;28;20450;-63
2023/04/12 04:31:36;;;;;;;6.72;2.40;;;;;;;;;;5070453;28;20016;-63
2023/04/12 04:34:04;;;;;;;8.50;3.08;;;;;;;;;;5070677;28;20100;-64
2023/04/12 04:36:29;;;;;;;11.20;2.90;;;;;;;;;;5069548;28;20025;-64
2023/04/12 04:38:56;;;;;;;5.80;2.67;;;;;;;;;;5070345;28;20048;-63
2023/04/12 04:41:21;;;;;;;5.05;2.28;;;;;;;;;;5070149;28;20078;-64
2023/04/12 04:43:47;;;;;;;8.25;2.50;;;;;;;;;;5070589;28;20017;-62
2023/04/12 04:46:12;;;;;;;6.05;2.85;;;;;;;;;;5070562;28;20024;-61
2023/04/12 04:48:39;;;;;;;8.60;2.05;;;;;;;;;;5070705;28;20066;-63
2023/04/12 04:51:05;;;;;;;6.90;2.22;;;;;;;;;;5069885;28;20115;-63
2023/04/12 04:53:30;;;;;;;4.65;1.88;;;;;;;;;;5070205;28;20142;-62
2023/04/12 04:55:59;;;;;;;6.25;2.35;;;;;;;;;;5070315;28;20469;-58
2023/04/12 04:58:25;;;;;;;6.07;2.75;;;;;;;;;;5069494;28;20103;-65
2023/04/12 05:00:54;;;;;;;13.95;2.97;;;;;;;;;;5070171;28;20153;-64
2023/04/12 05:03:19;;;;;;;3.83;2.40;;;;;;;;;;5069663;28;20505;-66
2023/04/12 05:05:46;;;;;;;10.48;3.13;;;;;;;;;;5068539;28;20040;-65
2023/04/12 05:08:12;;;;;;;5.95;2.35;;;;;;;;;;5069638;28;20544;-65
2023/04/12 05:10:37;;;;;;;12.90;2.35;;;;;;;;;;5069331;28;20154;-65
2023/04/12 05:13:02;;;;;;;6.57;2.28;;;;;;;;;;5064847;28;20108;-64
2023/04/12 05:15:29;;;;;;;13.73;2.28;;;;;;;;;;5065083;28;20651;-63
2023/04/12 05:17:54;;;;;;;4.63;2.60;;;;;;;;;;5070278;28;20517;-65
2023/04/12 05:20:20;;;;;;;6.32;2.25;;;;;;;;;;5069990;28;20043;-65
2023/04/12 05:22:45;;;;;;;5.07;2.17;;;;;;;;;;5069882;28;20504;-64
2023/04/12 05:25:10;;;;;;;3.35;1.77;;;;;;;;;;5069643;28;20096;-65
2023/04/12 05:27:35;;;;;;;8.93;3.10;;;;;;;;;;5070356;28;20017;-64
2023/04/12 05:30:00;;;;;;;5.03;2.13;;;;;;;;;;5069903;28;20496;-64
2023/04/12 05:32:26;;;;;;;8.88;2.42;;;;;;;;;;5069332;28;20544;-66
2023/04/12 05:34:51;;;;;;;5.00;2.30;;;;;;;;;;5068969;28;20442;-65
2023/04/12 05:37:16;;;;;;;6.05;2.25;;;;;;;;;;5069974;28;20560;-64
2023/04/12 05:39:42;;;;;;;7.78;2.30;;;;;;;;;;5069622;28;20528;-65
2023/04/12 05:42:07;;;;;;;8.45;2.30;;;;;;;;;;5069362;28;20046;-65
2023/04/12 05:44:34;;;;;;;9.85;2.58;;;;;;;;;;5056482;28;20701;-67
2023/04/12 05:46:59;;;;;;;6.70;2.00;;;;;;;;;;5069417;28;20115;-64
2023/04/12 05:49:27;;;;;;;4.65;2.10;;;;;;;;;;5069509;28;20470;-66
2023/04/12 05:51:52;;;;;;;3.85;1.83;;;;;;;;;;5068915;28;20046;-66
2023/04/12 05:54:20;;;;;;;5.63;2.30;;;;;;;;;;5068564;28;20016;-65
2023/04/12 05:56:45;;;;;;;12.07;2.83;;;;;;;;;;5080156;28;20024;-65
2023/04/12 05:59:11;;;;;;;4.25;1.77;;;;;;;;;;5069260;28;20023;-65
2023/04/12 06:01:37;;;;;;;5.72;1.85;;;;;;;;;;5069255;28;20028;-65
2023/04/12 06:04:04;;;;;;;13.35;2.42;;;;;;;;;;5069762;28;20474;-64
2023/04/12 06:06:30;;;;;;;22.50;2.78;;;;;;;;;;5070161;28;20104;-66
2023/04/12 06:08:59;;;;;;;11.35;2.63;;;;;;;;;;5069548;28;20063;-65
2023/04/12 06:11:24;;;;;;;;;;;;;;;;;;5069434;28;20043;-65
2023/04/12 06:13:50;;;;;;;5.85;1.90;;;;;;;;;;5069488;28;19904;-65
2023/04/12 06:16:15;;;;;;;7.38;1.85;;;;;;;;;;5069626;28;20404;-65
2023/04/12 06:18:40;;;;;;;5.85;1.70;;;;;;;;;;5068870;28;20042;-64
2023/04/12 06:21:05;;;;;;;9.85;1.90;;;;;;;;;;5069305;28;20160;-65
2023/04/12 06:23:31;;;;;;;4.00;1.90;;;;;;;;;;5069353;28;20016;-64
2023/04/12 06:25:56;;;;;;;3.97;1.88;;;;;;;;;;5069925;28;20028;-63
2023/04/12 06:28:21;;;;;;;3.38;1.60;;;;;;;;;;5070359;28;20031;-65
2023/04/12 06:30:46;;;;;;;16.67;2.53;;;;;;;;;;5072879;28;20446;-64
2023/04/12 06:33:12;;;;;;;7.70;1.77;;;;;;;;;;5072876;28;20562;-65
2023/04/12 06:35:37;;;;;;;5.68;1.85;;;;;;;;;;5072841;28;20028;-63
2023/04/12 06:38:02;;;;;;;5.63;2.20;;;;;;;;;;5073571;28;20385;-65
2023/04/12 06:40:27;;;;;;;9.40;2.42;;;;;;;;;;5072836;28;20242;-64
2023/04/12 06:42:53;;;;;;;6.00;1.50;;;;;;;;;;5073759;28;20017;-65
2023/04/12 06:45:18;;;;;;;7.68;2.22;;;;;;;;;;5072926;28;20111;-67
2023/04/12 06:47:43;;;;;;;9.32;2.15;;;;;;;;;;5073572;28;20158;-64
2023/04/12 06:50:08;;;;;;;6.00;1.50;;;;;;;;;;5072692;28;20064;-64
2023/04/12 06:52:34;;;;;;;4.78;1.88;;;;;;;;;;5072913;28;20074;-66
2023/04/12 06:54:59;;;;;;;10.95;2.20;;;;;;;;;;5066313;28;20138;-64
2023/04/12 06:57:24;;;;;;;6.53;2.28;;;;;;;;;;5072768;28;20021;-65
2023/04/12 06:59:50;;;;;;;12.40;3.35;;;;;;;;;;5072672;28;20025;-66
2023/04/12 07:02:15;;;;;;;15.73;2.08;;;;;;;;;;5069045;28;20078;-66
2023/04/12 07:04:40;;;;;;;8.90;1.92;;;;;;;;;;5074888;28;20023;-67
2023/04/12 07:07:05;;;;;;;4.13;1.42;;;;;;;;;;5072965;28;20020;-66
2023/04/12 07:09:31;;;;;;;4.13;1.73;;;;;;;;;;5072357;28;20046;-67
2023/04/12 07:11:56;;;;;;;8.60;2.25;;;;;;;;;;5072244;28;20037;-65
2023/04/12 07:14:22;;;;;;;3.90;1.73;;;;;;;;;;5072779;28;20055;-63
2023/04/12 07:16:47;;;;;;;4.30;1.73;;;;;;;;;;5071478;28;20012;-65
2023/04/12 07:19:12;;;;;;;4.32;1.75;;;;;;;;;;5071543;28;20020;-64
2023/04/12 07:21:37;;;;;;;5.28;2.30;;;;;;;;;;5071071;28;20028;-63
2023/04/12 07:24:03;;;;;;;8.00;2.03;;;;;;;;;;5053031;28;20032;-66
2023/04/12 07:26:29;;;;;;;4.57;1.85;;;;;;;;;;5053199;28;20035;-64
2023/04/12 07:28:54;;;;;;;9.38;1.88;;;;;;;;;;5071690;28;20024;-64
2023/04/12 07:31:19;;;;;;;11.52;1.90;;;;;;;;;;5071851;28;20021;-63
2023/04/12 07:33:44;;;;;;;5.28;2.30;;;;;;;;;;5067633;28;20031;-65
2023/04/12 07:36:10;;;;;;;7.57;2.08;;;;;;;;;;5068640;28;20016;-64
2023/04/12 07:38:35;;;;;;;6.45;1.90;;;;;;;;;;5069260;28;20024;-65
2023/04/12 07:41:01;;;;;;;4.15;1.70;;;;;;;;;;5065669;28;20025;-65
2023/04/12 07:43:26;;;;;;;5.90;1.75;;;;;;;;;;5071471;28;20127;-67
2023/04/12 07:45:53;;;;;;;9.23;1.92;;;;;;;;;;5071173;28;20400;-66
2023/04/12 07:48:18;;;;;;;6.30;2.05;;;;;;;;;;5071902;28;20097;-64
2023/04/12 07:50:43;;;;;;;5.10;1.60;;;;;;;;;;5081882;28;20024;-64
2023/04/12 07:53:25;;;;;;;7.70;2.13;;;;;;;;;;5070620;28;20022;-67
2023/04/12 07:55:50;;;;;;;6.40;1.83;;;;;;;;;;5077572;28;20086;-65
2023/04/12 07:58:16;;;;;;;12.60;2.13;;;;;;;;;;5051726;28;20018;-63
2023/04/12 08:00:42;;;;;;;7.35;1.95;;;;;;;;;;5068603;28;20116;-66
2023/04/12 08:03:07;;;;;;;7.90;1.75;;;;;;;;;;5070681;28;20040;-65
2023/04/12 08:05:33;;;;;;;5.95;2.03;;;;;;;;;;5069852;28;20020;-64
2023/04/12 08:07:58;;;;;;;7.80;1.63;;;;;;;;;;5070351;28;20377;-64
2023/04/12 08:10:23;;;;;;;7.25;2.10;;;;;;;;;;5076438;28;20062;-64
2023/04/12 08:12:49;;;;;;;6.28;2.08;;;;;;;;;;5068414;28;20012;-65
2023/04/12 08:15:14;;;;;;;6.22;1.75;;;;;;;;;;5070232;28;20028;-62
2023/04/12 08:17:42;;;;;;;5.80;2.03;;;;;;;;;;5072182;28;20027;-64
2023/04/12 08:20:07;;;;;;;11.83;2.57;;;;;;;;;;5069897;28;20104;-64
2023/04/12 08:22:33;;;;;;;7.38;1.88;;;;;;;;;;5055696;28;20103;-65
2023/04/12 08:24:58;;;;;;;5.85;1.88;;;;;;;;;;5068867;28;20122;-62
2023/04/12 08:27:23;;;;;;;9.98;2.63;;;;;;;;;;5051433;28;20020;-62
2023/04/12 08:29:48;;;;;;;7.43;2.10;;;;;;;;;;5070626;28;20074;-64
2023/04/12 08:32:14;;;;;;;12.27;2.25;;;;;;;;;;5074228;28;20157;-65
2023/04/12 08:34:40;;;;;;;8.52;2.20;;;;;;;;;;5083752;28;20121;-67
2023/04/12 08:37:05;;;;;;;5.68;1.90;;;;;;;;;;5081282;28;20167;-64
2023/04/12 08:39:31;;;;;;;7.47;2.20;;;;;;;;;;5080210;28;20054;-64
2023/04/12 08:41:57;;;;;;;7.00;1.77;;;;;;;;;;5069895;28;20027;-65
2023/04/12 08:44:37;;;;;;;7.57;2.05;;;;;;;;;;5070655;28;20017;-63
2023/04/12 08:47:06;;;;;;;11.13;2.08;;;;;;;;;;5071571;28;20032;-62
2023/04/12 08:49:32;;;;;;;9.60;1.85;;;;;;;;;;5085393;22;20105;-70
2023/04/12 08:52:02;;;;;;;7.03;2.25;;;;;;;;;;5089621;28;20024;-67
2023/04/12 08:54:27;;;;;;;9.68;2.65;;;;;;;;;;5088855;28;20012;-72
2023/04/12 08:56:56;;;;;;;11.57;2.08;;;;;;;;;;5089870;28;20605;-69
2023/04/12 08:59:22;;;;;;;5.70;1.65;;;;;;;;;;5093759;28;20012;-71
2023/04/12 09:01:47;;;;;;;6.88;1.48;;;;;;;;;;5109096;28;20503;-71
2023/04/12 09:04:13;;;;;;;9.02;1.77;;;;;;;;;;5109027;28;20096;-68
2023/04/12 09:06:38;;;;;;;9.82;2.08;;;;;;;;;;5109771;28;20022;-70
2023/04/12 09:09:05;;;;;;;3.58;1.40;;;;;;;;;;5110285;28;20094;-70
2023/04/12 09:11:31;;;;;;;6.18;1.63;;;;;;;;;;5109903;28;20092;-70
2023/04/12 09:13:57;;;;;;;7.07;1.77;;;;;;;;;;5093351;28;20047;-72
2023/04/12 09:16:38;;;;;;;7.85;1.58;;;;;;;;;;5109039;28;20054;-69
2023/04/12 09:19:04;;;;;;;13.30;2.08;;;;;;;;;;5109331;28;20050;-70
2023/04/12 09:21:30;;;;;;;10.10;2.08;;;;;;;;;;5109364;28;20019;-71
2023/04/12 09:24:08;;;;;;;8.75;1.75;;;;;;;;;;5108625;28;20024;-70
2023/04/12 09:26:33;;;;;;;11.13;1.75;;;;;;;;;;5109005;28;20400;-70
2023/04/12 09:28:58;;;;;;;4.63;1.50;;;;;;;;;;5094149;28;20076;-70
2023/04/12 09:31:23;;;;;;;10.77;1.75;;;;;;;;;;5109116;28;20119;-71
2023/04/12 09:33:49;;;;;;;6.20;1.48;;;;;;;;;;5108735;28;20144;-67
2023/04/12 09:36:16;;;;;;;7.28;1.45;;;;;;;;;;5109171;28;20065;-69
2023/04/12 09:38:56;;;;;;;8.73;1.42;;;;;;;;;;5108153;28;20029;-67
2023/04/12 09:41:21;;;;;;;7.70;1.55;;;;;;;;;;5109020;28;20049;-68
2023/04/12 09:43:47;;;;;;;13.05;1.75;;;;;;;;;;5082132;28;20492;-70
2023/04/12 09:46:13;;;;;;;10.00;1.85;;;;;;;;;;5109033;28;20018;-69
2023/04/12 09:48:39;;;;;;;5.18;1.50;;;;;;;;;;5109239;28;20107;-69
2023/04/12 09:51:05;;;;;;;10.75;1.85;;;;;;;;;;5108255;28;20625;-67
2023/04/12 09:53:32;;;;;;;9.57;1.77;;;;;;;;;;5109276;28;20032;-69
2023/04/12 09:55:58;;;;;;;3.38;1.30;;;;;;;;;;5107801;28;20365;-71
2023/04/12 09:58:24;;;;;;;4.72;1.52;;;;;;;;;;5108496;28;20514;-71
2023/04/12 10:00:49;;;;;;;7.03;1.50;;;;;;;;;;5090790;28;20039;-68
2023/04/12 10:03:15;;;;;;;6.97;1.48;;;;;;;;;;5099451;28;20055;-70
2023/04/12 10:05:41;;;;;;;6.63;1.73;;;;;;;;;;5100478;28;20024;-70
2023/04/12 10:08:06;;;;;;;6.85;1.50;;;;;;;;;;5112974;28;20027;-69
2023/04/12 10:10:31;;;;;;;4.32;1.48;;;;;;;;;;5112799;28;20028;-69
2023/04/12 10:12:57;;;;;;;8.93;1.55;;;;;;;;;;5112789;28;20019;-70
2023/04/12 10:15:24;;;;;;;8.55;1.80;;;;;;;;;;5093706;28;20425;-71
2023/04/12 10:17:53;;;;;;;11.20;1.65;;;;;;;;;;5113652;28;20023;-70
2023/04/12 10:20:19;;;;;;;6.72;1.42;;;;;;;;;;5102827;28;20103;-71
2023/04/12 10:22:46;;;;;;;4.32;1.25;;;;;;;;;;5112912;28;20073;-70
2023/04/12 10:25:12;;;;;;;7.07;2.67;;;;;;;;;;5112832;28;20498;-69
2023/04/12 10:27:38;;;;;;;7.15;1.50;;;;;;;;;;5081866;28;20048;-70
2023/04/12 10:30:19;;;;;;;8.00;1.80;;;;;;;;;;5112731;28;20393;-69
2023/04/12 10:32:45;;;;;;;6.95;1.48;;;;;;;;;;5106899;28;20045;-68
2023/04/12 10:35:11;;;;;;;7.28;1.70;;;;;;;;;;5107981;28;20269;-67
2023/04/12 10:37:54;;;;;;;9.27;1.75;;;;;;;;;;5106520;28;20547;-69
2023/04/12 10:40:20;;;;;;;10.27;1.85;;;;;;;;;;5106811;28;20161;-68
2023/04/12 10:42:45;;;;;;;12.52;2.17;;;;;;;;;;5107964;28;20548;-69
2023/04/12 10:45:23;;;;;;;6.28;1.40;;;;;;;;;;5110873;28;20123;-67
2023/04/12 10:47:48;;;;;;;4.90;1.67;;;;;;;;;;5112545;28;20419;-67
2023/04/12 10:50:20;;;;;;;11.35;2.00;;;;;;;;;;5095563;28;20072;-67
2023/04/12 10:53:05;;;;;;;5.65;1.55;;;;;;;;;;5113321;28;20183;-68
2023/04/12 10:55:32;;;;;;;10.63;2.00;;;;;;;;;;5111531;28;20039;-68
2023/04/12 10:57:57;;;;;;;4.20;1.45;;;;;;;;;;5092790;28;20052;-67
2023/04/12 11:00:22;;;;;;;7.93;1.77;;;;;;;;;;5110769;28;20144;-71
2023/04/12 11:03:04;;;;;;;4.10;1.55;;;;;;;;;;5111599;28;20020;-67
2023/04/12 11:05:30;;;;;;;7.35;1.48;;;;;;;;;;5107202;28;20059;-68
2023/04/12 11:07:58;;;;;;;5.63;1.40;;;;;;;;;;5094254;28;20047;-69
2023/04/12 11:10:25;;;;;;;7.68;1.50;;;;;;;;;;5095571;28;20015;-68
2023/04/12 11:12:59;;;;;;;7.68;2.33;;;;;;;;;;5103451;28;20019;-67
2023/04/12 11:15:25;;;;;;;7.10;1.70;;;;;;;;;;5108134;28;20019;-67
2023/04/12 11:17:54;;;;;;;6.93;1.50;;;;;;;;;;5094819;28;20057;-68
2023/04/12 11:20:19;;;;;;;;;;;;;;;;;;5103887;28;20027;-67
2023/04/12 11:22:44;;;;;;;4.93;1.35;;;;;;;;;;5112131;28;19919;-68
2023/04/12 11:25:16;;;;;;;7.80;1.25;;;;;;;;;;5108848;28;20019;-67
2023/04/12 11:27:47;;;;;;;7.03;1.27;;;;;;;;;;5086138;28;20085;-67
2023/04/12 11:30:13;;;;;;;6.25;1.50;;;;;;;;;;5112115;28;20028;-64
2023/04/12 11:32:40;;;;;;;5.10;1.48;;;;;;;;;;5111414;28;20026;-67
2023/04/12 11:35:06;;;;;;;8.35;1.60;;;;;;;;;;5111374;28;20016;-67
2023/04/12 11:37:31;;;;;;;10.95;1.40;;;;;;;;;;5112201;28;20534;-67
2023/04/12 11:39:56;;;;;;;7.07;1.48;;;;;;;;;;5112010;28;20024;-68
2023/04/12 11:42:23;;;;;;;4.53;1.42;;;;;;;;;;5111672;28;20110;-71
2023/04/12 11:44:48;;;;;;;6.03;1.35;;;;;;;;;;5108329;28;20107;-68
2023/04/12 11:47:23;;;;;;;5.63;1.50;;;;;;;;;;5101518;28;20047;-67
2023/04/12 11:49:49;;;;;;;3.33;1.45;;;;;;;;;;5103816;28;20370;-67
2023/04/12 11:52:15;;;;;;;4.30;1.58;;;;;;;;;;5111912;28;20026;-70
2023/04/12 11:54:44;;;;;;;2.30;1.38;;;;;;;;;;5107942;28;20016;-67
2023/04/12 11:57:10;;;;;;;5.45;1.50;;;;;;;;;;5112283;27;20023;-67
2023/04/12 11:59:36;;;;;;;6.20;1.50;;;;;;;;;;5111071;28;20019;-72
2023/04/12 12:02:01;;;;;;;9.73;3.22;;;;;;;;;;5110787;28;20060;-72
2023/04/12 12:04:28;;;;;;;4.40;1.58;;;;;;;;;;5110550;28;20046;-69
2023/04/12 12:06:54;;;;;;;3.97;1.40;;;;;;;;;;5102697;28;20022;-67
2023/04/12 12:09:20;;;;;;;7.85;1.77;;;;;;;;;;5110431;28;20020;-67
2023/04/12 12:11:45;;;;;;;7.57;1.73;;;;;;;;;;5110938;28;20499;-68
2023/04/12 12:14:10;;;;;;;7.68;1.70;;;;;;;;;;5110167;28;20043;-66
2023/04/12 12:16:37;;;;;;;5.60;1.70;;;;;;;;;;5111725;27;20054;-66
2023/04/12 12:19:03;;;;;;;9.15;1.80;;;;;;;;;;5110762;28;20023;-67
2023/04/12 12:21:30;;;;;;;14.68;2.55;;;;;;;;;;5107863;28;20024;-67
2023/04/12 12:23:55;;;;;;;4.60;1.33;;;;;;;;;;5110933;28;20031;-66
2023/04/12 12:26:21;;;;;;;3.35;1.42;;;;;;;;;;5110446;28;20031;-65
2023/04/12 12:28:50;;;;;;;9.07;1.98;;;;;;;;;;5110214;28;20023;-67
2023/04/12 12:31:18;;;;;;;6.07;1.33;;;;;;;;;;5111185;28;20539;-68
2023/04/12 12:33:44;;;;;;;3.70;1.48;;;;;;;;;;5110614;28;20047;-66
2023/04/12 12:36:09;;;;;;;5.03;1.65;;;;;;;;;;5110724;28;20047;-66
2023/04/12 12:38:38;;;;;;;4.88;1.80;;;;;;;;;;5111160;28;20023;-63
2023/04/12 12:41:19;;;;;;;6.93;1.55;;;;;;;;;;5108326;28;20042;-68
2023/04/12 12:43:48;;;;;;;5.70;1.60;;;;;;;;;;5108637;28;20020;-65
2023/04/12 12:46:14;;;;;;;7.40;1.75;;;;;;;;;;5110780;28;20372;-65
2023/04/12 12:48:40;;;;;;;4.97;1.95;;;;;;;;;;5108941;28;20031;-67
2023/04/12 12:51:06;;;;;;;3.38;1.60;;;;;;;;;;5109275;28;20032;-64
2023/04/12 12:53:31;;;;;;;6.78;2.20;;;;;;;;;;5110225;28;20035;-64
2023/04/12 12:55:56;;;;;;;6.40;1.92;;;;;;;;;;5109584;28;20016;-66
2023/04/12 12:58:21;;;;;;;8.23;2.88;;;;;;;;;;5100397;28;20069;-68
2023/04/12 13:00:46;;;;;;;10.10;3.13;;;;;;;;;;5110631;28;20027;-67
2023/04/12 13:03:12;;;;;;;7.32;2.47;;;;;;;;;;5109141;28;20026;-66
2023/04/12 13:05:37;;;;;;;14.15;3.75;;;;;;;;;;5107971;28;20050;-68
2023/04/12 13:08:02;;;;;;;9.63;2.65;;;;;;;;;;5108179;28;20605;-69
2023/04/12 13:10:28;;;;;;;31.98;6.65;;;;;;;;;;5109150;28;20376;-67
2023/04/12 13:12:53;;;;;;;24.25;5.88;;;;;;;;;;5109811;28;20094;-68
2023/04/12 13:15:18;;;;;;;10.70;2.65;;;;;;;;;;5094853;28;20046;-67
2023/04/12 13:17:43;;;;;;;14.45;2.92;;;;;;;;;;5098250;28;20031;-67
2023/04/12 13:20:09;;;;;;;9.45;2.50;;;;;;;;;;5107434;28;20027;-67
2023/04/12 13:22:34;;;;;;;14.45;3.00;;;;;;;;;;5109722;28;20106;-68
2023/04/12 13:25:00;;;;;;;28.13;5.38;;;;;;;;;;5109337;28;20031;-66
2023/04/12 13:27:26;;;;;;;33.17;6.68;;;;;;;;;;5110029;28;20028;-69
2023/04/12 13:29:51;;;;;;;11.85;3.92;;;;;;;;;;5109490;28;20099;-68
2023/04/12 13:32:17;;;;;;;7.47;3.35;;;;;;;;;;5110050;28;20103;-67
2023/04/12 13:34:42;;;;;;;6.95;2.60;;;;;;;;;;5107125;28;20044;-68
2023/04/12 13:37:07;;;;;;;8.93;3.25;;;;;;;;;;5091062;28;20058;-67
2023/04/12 13:39:34;;;;;;;6.38;2.80;;;;;;;;;;5108074;28;20027;-69
2023/04/12 13:42:00;;;;;;;6.07;2.05;;;;;;;;;;5106749;28;20057;-66
2023/04/12 13:44:26;;;;;;;6.50;2.38;;;;;;;;;;5109468;28;20110;-66
2023/04/12 13:46:52;;;;;;;6.53;2.55;;;;;;;;;;5108939;28;20046;-65
2023/04/12 13:49:17;;;;;;;9.60;2.63;;;;;;;;;;5109181;28;20100;-65
2023/04/12 13:51:42;;;;;;;4.18;2.03;;;;;;;;;;5096247;28;20024;-68
2023/04/12 13:54:07;;;;;;;3.97;1.70;;;;;;;;;;5108352;28;20015;-68
2023/04/12 13:56:33;;;;;;;5.03;2.03;;;;;;;;;;5108880;28;20472;-68
2023/04/12 13:58:58;;;;;;;4.00;1.70;;;;;;;;;;5108445;28;20047;-68
2023/04/12 14:01:24;;;;;;;5.80;2.47;;;;;;;;;;5109334;28;20022;-69
2023/04/12 14:03:49;;;;;;;5.60;1.90;;;;;;;;;;5107363;28;20040;-67
2023/04/12 14:06:14;;;;;;;7.05;2.10;;;;;;;;;;5109170;28;20023;-67
2023/04/12 14:08:40;;;;;;;3.80;2.08;;;;;;;;;;5110259;28;20073;-67
2023/04/12 14:11:06;;;;;;;4.28;2.30;;;;;;;;;;5108381;28;20089;-66
2023/04/12 14:13:31;;;;;;;6.75;2.08;;;;;;;;;;5108179;28;20023;-65
2023/04/12 14:15:56;;;;;;;7.75;1.70;;;;;;;;;;5108819;28;20020;-69
2023/04/12 14:18:22;;;;;;;5.85;1.90;;;;;;;;;;5108397;28;20451;-67
2023/04/12 14:20:51;;;;;;;5.03;2.05;;;;;;;;;;5100599;28;20030;-66
2023/04/12 14:23:17;;;;;;;5.15;1.60;;;;;;;;;;5108365;28;20102;-68
2023/04/12 14:25:42;;;;;;;5.45;1.63;;;;;;;;;;5095612;28;20824;-67
2023/04/12 14:28:07;;;;;;;7.05;2.13;;;;;;;;;;5108938;28;20027;-66
2023/04/12 14:30:32;;;;;;;4.80;2.05;;;;;;;;;;5097227;28;20663;-66
2023/04/12 14:32:58;;;;;;;4.53;2.15;;;;;;;;;;5108794;28;20068;-67
2023/04/12 14:35:23;;;;;;;4.63;1.83;;;;;;;;;;5106343;28;20080;-66
2023/04/12 14:37:48;;;;;;;11.98;1.70;;;;;;;;;;5090955;28;20064;-68